^^
B2 Weather Station Historical Data
Daily Summary for March 24, 2019 Units:  English    Metric   Both
Daily Weekly Monthly Yearly Custom
  High: Low: Average:
Temperature: 50.9 °F 36.8 °F 43.3 °F
Dew Point: 45.2 °F 31.0 °F 39.6 °F
Humidity: 94% 68% 87%
Wind Speed: 21.9mph 0.0mph 4mph
Wind Gust: 15.4mph - -
Wind- - East
Pressure: 30.24 in 30.04 in -
Precipitation: 0.16 in    
Historical Graphs
 
 
Tabular Data for March 24, 2019
Time Temperature Dew Point Pressure Wind Wind Speed Wind Gust Humidity Rainfall Rate (Hourly) solar
00:04 38.5 °F 31.3 °F 30.24 in SSE 1.2 mph   75% 0.00 in 0.00 W/m2
00:09 38.7 °F 31.1 °F 30.23 in Calm     74% 0.00 in 0.00 W/m2
00:14 38.8 °F 31.6 °F 30.23 in Calm     75% 0.00 in 0.00 W/m2
00:19 38.7 °F 31.5 °F 30.23 in Calm     75% 0.00 in 0.00 W/m2
00:24 38.7 °F 31.5 °F 30.23 in Calm     75% 0.00 in 0.00 W/m2
00:29 38.7 °F 31.5 °F 30.23 in Calm     75% 0.00 in 0.00 W/m2
00:34 38.5 °F 31.6 °F 30.23 in Calm     76% 0.00 in 0.00 W/m2
00:39 38.3 °F 31.1 °F 30.22 in Calm     75% 0.00 in 0.00 W/m2
00:44 38.2 °F 31.0 °F 30.22 in Calm     75% 0.00 in 0.00 W/m2
00:49 38.2 °F 31.3 °F 30.22 in Calm     76% 0.00 in 0.00 W/m2
00:54 38.3 °F 31.4 °F 30.22 in Calm     76% 0.00 in 0.00 W/m2
00:59 38.3 °F 31.4 °F 30.22 in Calm     76% 0.00 in 0.00 W/m2
01:04 38.5 °F 31.6 °F 30.22 in Calm     76% 0.00 in 0.00 W/m2
01:09 38.6 °F 31.7 °F 30.22 in Calm     76% 0.00 in 0.00 W/m2
01:14 38.6 °F 32.0 °F 30.22 in Calm     77% 0.00 in 0.00 W/m2
01:19 38.5 °F 31.9 °F 30.22 in Calm     77% 0.00 in 0.00 W/m2
01:24 38.4 °F 32.1 °F 30.22 in Calm     78% 0.00 in 0.00 W/m2
01:29 38.3 °F 32.4 °F 30.22 in Calm     79% 0.00 in 0.00 W/m2
01:34 38.1 °F 32.2 °F 30.21 in Calm     79% 0.00 in 0.00 W/m2
01:39 38.0 °F 32.1 °F 30.21 in Calm     79% 0.00 in 0.00 W/m2
01:44 38.0 °F 32.1 °F 30.21 in Calm     79% 0.00 in 0.00 W/m2
01:49 38.1 °F 31.8 °F 30.21 in Calm     78% 0.00 in 0.00 W/m2
01:54 38.2 °F 32.3 °F 30.21 in Calm     79% 0.00 in 0.00 W/m2
01:59 38.2 °F 32.3 °F 30.21 in Calm     79% 0.00 in 0.00 W/m2
02:04 38.2 °F 32.3 °F 30.21 in Calm     79% 0.00 in 0.00 W/m2
02:09 38.0 °F 32.4 °F 30.21 in Calm     80% 0.00 in 0.00 W/m2
02:14 38.0 °F 32.4 °F 30.21 in Calm     80% 0.00 in 0.00 W/m2
02:19 38.1 °F 33.1 °F 30.21 in Calm     82% 0.00 in 0.00 W/m2
02:24 38.0 °F 33.0 °F 30.21 in Calm     82% 0.00 in 0.00 W/m2
02:29 38.0 °F 33.0 °F 30.21 in Calm     82% 0.00 in 0.00 W/m2
02:34 38.1 °F 33.4 °F 30.21 in Calm     83% 0.00 in 0.00 W/m2
02:39 38.2 °F 33.2 °F 30.20 in Calm     82% 0.00 in 0.00 W/m2
02:44 38.3 °F 33.3 °F 30.20 in Calm     82% 0.00 in 0.00 W/m2
02:49 38.2 °F 33.2 °F 30.20 in Calm     82% 0.00 in 0.00 W/m2
02:54 38.4 °F 33.4 °F 30.20 in Calm     82% 0.00 in 0.00 W/m2
02:59 38.6 °F 33.6 °F 30.20 in Calm     82% 0.00 in 0.00 W/m2
03:04 38.6 °F 33.6 °F 30.20 in Calm     82% 0.00 in 0.00 W/m2
03:09 38.6 °F 33.6 °F 30.20 in Calm     82% 0.00 in 0.00 W/m2
03:14 38.7 °F 33.4 °F 30.20 in Calm     81% 0.00 in 0.00 W/m2
03:19 38.8 °F 33.5 °F 30.19 in Calm     81% 0.00 in 0.00 W/m2
03:24 39.0 °F 33.7 °F 30.19 in Calm     81% 0.00 in 0.00 W/m2
03:29 39.4 °F 33.7 °F 30.18 in SSW 4.0 mph 1.3 mph 80% 0.00 in 0.00 W/m2
03:34 40.0 °F 34.0 °F 30.18 in SSE 6.9 mph 3.1 mph 79% 0.00 in 0.00 W/m2
03:39 40.7 °F 35.0 °F 30.18 in SSW 11.5 mph 6.9 mph 80% 0.00 in 0.00 W/m2
03:44 41.3 °F 36.2 °F 30.18 in SSW 8.1 mph 4.1 mph 82% 0.00 in 0.00 W/m2
03:49 41.4 °F 36.3 °F 30.18 in SSW 6.9 mph 4.7 mph 82% 0.01 in 0.00 W/m2
03:54 41.4 °F 36.9 °F 30.17 in SW 6.9 mph 0.8 mph 84% 0.01 in 0.00 W/m2
03:59 41.4 °F 37.2 °F 30.17 in SW 5.8 mph 2.5 mph 85% 0.01 in 0.00 W/m2
04:04 41.5 °F 37.6 °F 30.17 in SW 3.5 mph 0.8 mph 86% 0.02 in 0.00 W/m2
04:09 41.6 °F 38.0 °F 30.16 in South 3.5 mph   87% 0.02 in 0.00 W/m2
04:14 41.6 °F 38.0 °F 30.16 in SSW 3.5 mph 1.5 mph 87% 0.02 in 0.00 W/m2
04:19 41.6 °F 38.3 °F 30.16 in Calm     88% 0.02 in 0.00 W/m2
04:24 41.6 °F 38.6 °F 30.16 in Calm     89% 0.02 in 0.00 W/m2
04:29 41.7 °F 38.7 °F 30.16 in Calm     89% 0.02 in 0.00 W/m2
04:34 41.8 °F 38.8 °F 30.15 in Calm     89% 0.02 in 0.00 W/m2
04:39 41.9 °F 38.9 °F 30.15 in Calm     89% 0.02 in 0.00 W/m2
04:44 41.9 °F 38.9 °F 30.15 in Calm     89% 0.02 in 0.00 W/m2
04:49 41.9 °F 38.9 °F 30.15 in Calm     89% 0.01 in 0.00 W/m2
04:54 42.0 °F 39.0 °F 30.14 in Calm     89% 0.01 in 0.00 W/m2
04:59 41.9 °F 38.9 °F 30.14 in Calm     89% 0.01 in 0.00 W/m2
05:04 41.9 °F 39.2 °F 30.15 in Calm     90% 0.00 in 0.00 W/m2
05:09 41.9 °F 39.2 °F 30.14 in Calm     90% 0.00 in 0.00 W/m2
05:14 41.9 °F 39.2 °F 30.14 in Calm     90% 0.00 in 0.00 W/m2
05:19 41.8 °F 39.1 °F 30.14 in Calm     90% 0.00 in 0.00 W/m2
05:24 41.8 °F 39.1 °F 30.14 in Calm     90% 0.00 in 0.00 W/m2
05:29 41.8 °F 39.4 °F 30.14 in Calm     91% 0.00 in 0.00 W/m2
05:34 41.7 °F 39.3 °F 30.14 in Calm     91% 0.00 in 0.00 W/m2
05:39 41.6 °F 39.2 °F 30.14 in Calm     91% 0.00 in 0.00 W/m2
05:44 41.5 °F 39.1 °F 30.15 in Calm     91% 0.00 in 0.00 W/m2
05:49 41.5 °F 39.1 °F 30.15 in Calm     91% 0.00 in 0.00 W/m2
05:54 41.5 °F 39.1 °F 30.15 in SSW 5.8 mph 3.4 mph 91% 0.00 in 0.00 W/m2
05:59 41.3 °F 38.9 °F 30.16 in SSW 4.6 mph 2.6 mph 91% 0.00 in 0.00 W/m2
06:04 41.2 °F 38.8 °F 30.15 in Calm     91% 0.00 in 0.00 W/m2
06:09 41.1 °F 38.4 °F 30.15 in SW 3.5 mph   90% 0.00 in 0.00 W/m2
06:14 41.1 °F 38.4 °F 30.15 in SSW 3.5 mph   90% 0.00 in 0.00 W/m2
06:19 41.0 °F 38.3 °F 30.15 in South 2.3 mph 0.3 mph 90% 0.00 in 0.00 W/m2
06:24 41.0 °F 38.3 °F 30.15 in South 3.5 mph 0.5 mph 90% 0.00 in 0.00 W/m2
06:29 41.0 °F 38.3 °F 30.15 in Calm   0.8 mph 90% 0.00 in 0.00 W/m2
06:34 41.1 °F 38.4 °F 30.15 in South 3.5 mph 0.4 mph 90% 0.00 in 0.00 W/m2
06:39 41.1 °F 38.7 °F 30.15 in Calm     91% 0.00 in 0.00 W/m2
06:44 41.2 °F 38.8 °F 30.15 in South 3.5 mph   91% 0.00 in 0.00 W/m2
06:49 41.1 °F 38.7 °F 30.15 in Calm     91% 0.00 in 0.00 W/m2
06:54 41.1 °F 38.7 °F 30.15 in Calm     91% 0.00 in 5.00 W/m2
06:59 41.1 °F 38.7 °F 30.15 in Calm     91% 0.00 in 5.00 W/m2
07:04 41.2 °F 38.8 °F 30.15 in Calm     91% 0.00 in 5.00 W/m2
07:09 41.2 °F 38.8 °F 30.15 in Calm     91% 0.00 in 11.00 W/m2
07:14 41.3 °F 38.9 °F 30.15 in Calm     91% 0.00 in 18.00 W/m2
07:19 41.4 °F 39.0 °F 30.15 in Calm     91% 0.00 in 14.00 W/m2
07:24 41.5 °F 39.1 °F 30.15 in Calm     91% 0.00 in 18.00 W/m2
07:29 41.6 °F 39.2 °F 30.15 in Calm     91% 0.00 in 26.00 W/m2
07:34 41.7 °F 39.3 °F 30.14 in Calm     91% 0.00 in 37.00 W/m2
07:39 41.8 °F 39.6 °F 30.14 in Calm     92% 0.00 in 44.00 W/m2
07:44 41.9 °F 39.7 °F 30.14 in Calm     92% 0.00 in 47.00 W/m2
07:49 42.0 °F 39.8 °F 30.14 in Calm     92% 0.00 in 49.00 W/m2
07:54 42.2 °F 40.0 °F 30.14 in Calm     92% 0.00 in 33.00 W/m2
07:59 42.2 °F 40.0 °F 30.14 in Calm     92% 0.00 in 44.00 W/m2
08:04 42.4 °F 40.2 °F 30.14 in Calm     92% 0.00 in 47.00 W/m2
08:09 42.5 °F 40.3 °F 30.14 in Calm     92% 0.00 in 44.00 W/m2
08:14 42.6 °F 40.4 °F 30.14 in Calm     92% 0.00 in 46.00 W/m2
08:19 42.7 °F 40.5 °F 30.14 in Calm     92% 0.00 in 62.00 W/m2
08:24 42.8 °F 40.6 °F 30.14 in Calm     92% 0.00 in 51.00 W/m2
08:29 42.9 °F 40.7 °F 30.14 in Calm     92% 0.00 in 44.00 W/m2
08:34 43.0 °F 40.8 °F 30.14 in Calm     92% 0.00 in 39.00 W/m2
08:39 43.0 °F 40.6 °F 30.14 in Calm     91% 0.00 in 49.00 W/m2
08:44 43.0 °F 40.6 °F 30.14 in Calm     91% 0.00 in 49.00 W/m2
08:49 43.1 °F 40.7 °F 30.14 in South 3.5 mph   91% 0.00 in 40.00 W/m2
08:54 43.1 °F 40.7 °F 30.14 in South 3.5 mph   91% 0.00 in 37.00 W/m2
08:59 43.1 °F 40.4 °F 30.14 in Calm     90% 0.00 in 37.00 W/m2
09:04 43.2 °F 40.5 °F 30.14 in SSE 2.0 mph 0.9 mph 90% 0.00 in 53.00 W/m2
09:09 43.2 °F 40.2 °F 30.14 in SSE 3.5 mph 1.4 mph 89% 0.00 in 56.00 W/m2
09:14 43.3 °F 40.3 °F 30.14 in Calm     89% 0.00 in 46.00 W/m2
09:19 43.4 °F 40.4 °F 30.14 in Calm     89% 0.00 in 47.00 W/m2
09:24 43.5 °F 40.5 °F 30.14 in SSE 2.3 mph   89% 0.00 in 49.00 W/m2
09:29 43.7 °F 40.7 °F 30.14 in Calm     89% 0.00 in 51.00 W/m2
09:34 43.7 °F 40.4 °F 30.14 in Calm     88% 0.00 in 56.00 W/m2
09:39 43.8 °F 40.5 °F 30.13 in Calm     88% 0.00 in 60.00 W/m2
09:44 43.8 °F 40.2 °F 30.14 in Calm   1.3 mph 87% 0.00 in 63.00 W/m2
09:49 43.9 °F 40.0 °F 30.14 in Calm     86% 0.00 in 56.00 W/m2
09:54 44.0 °F 40.1 °F 30.14 in South 3.5 mph 2.8 mph 86% 0.00 in 58.00 W/m2
09:59 44.1 °F 39.9 °F 30.14 in SSE 3.5 mph 1.3 mph 85% 0.00 in 69.00 W/m2
10:04 44.3 °F 40.1 °F 30.14 in SSE 3.5 mph 2.3 mph 85% 0.00 in 79.00 W/m2
10:09 44.5 °F 40.0 °F 30.14 in SSE 3.5 mph 0.2 mph 84% 0.00 in 97.00 W/m2
10:14 44.7 °F 40.2 °F 30.14 in SSE 3.5 mph   84% 0.00 in 97.00 W/m2
10:19 44.9 °F 40.4 °F 30.14 in Calm     84% 0.00 in 95.00 W/m2
10:24 45.0 °F 40.1 °F 30.14 in South 4.0 mph 1.6 mph 83% 0.00 in 77.00 W/m2
10:29 45.0 °F 40.5 °F 30.14 in South 2.3 mph 0.4 mph 84% 0.00 in 65.00 W/m2
10:34 45.0 °F 40.5 °F 30.14 in Calm     84% 0.00 in 81.00 W/m2
10:39 45.0 °F 40.8 °F 30.14 in Calm     85% 0.00 in 86.00 W/m2
10:44 45.2 °F 41.3 °F 30.14 in Calm   0.1 mph 86% 0.00 in 81.00 W/m2
10:49 45.3 °F 41.7 °F 30.14 in Calm     87% 0.00 in 76.00 W/m2
10:54 45.4 °F 41.8 °F 30.14 in Calm     87% 0.00 in 83.00 W/m2
10:59 45.6 °F 42.0 °F 30.13 in Calm     87% 0.00 in 113.00 W/m2
11:04 45.9 °F 42.2 °F 30.13 in Calm     87% 0.01 in 127.00 W/m2
11:09 46.2 °F 42.2 °F 30.13 in Calm     86% 0.01 in 105.00 W/m2
11:14 46.4 °F 42.1 °F 30.13 in Calm     85% 0.01 in 97.00 W/m2
11:19 46.7 °F 42.7 °F 30.12 in SSE 2.3 mph 0.7 mph 86% 0.01 in 90.00 W/m2
11:24 46.7 °F 41.8 °F 30.12 in Calm     83% 0.01 in 95.00 W/m2
11:29 46.9 °F 42.0 °F 30.12 in Calm     83% 0.01 in 102.00 W/m2
11:34 47.0 °F 42.1 °F 30.12 in Calm     83% 0.01 in 107.00 W/m2
11:39 47.2 °F 42.0 °F 30.12 in Calm     82% 0.01 in 102.00 W/m2
11:44 47.4 °F 42.2 °F 30.12 in Calm     82% 0.01 in 100.00 W/m2
11:49 47.5 °F 42.0 °F 30.12 in Calm     81% 0.01 in 128.00 W/m2
11:54 47.8 °F 42.6 °F 30.12 in SE 3.0 mph 1.1 mph 82% 0.01 in 156.00 W/m2
11:59 48.2 °F 42.6 °F 30.12 in SE 3.5 mph 0.7 mph 81% 0.01 in 178.00 W/m2
12:04 48.4 °F 42.5 °F 30.12 in SSE 4.6 mph 3.1 mph 80% 0.00 in 174.00 W/m2
12:09 48.7 °F 41.8 °F 30.11 in SE 8.1 mph 5.2 mph 77% 0.00 in 171.00 W/m2
12:14 48.9 °F 42.0 °F 30.11 in SSE 4.6 mph 4.3 mph 77% 0.00 in 176.00 W/m2
12:19 49.1 °F 41.5 °F 30.11 in SSE 6.9 mph 4.9 mph 75% 0.00 in 200.00 W/m2
12:24 49.4 °F 42.1 °F 30.11 in SSE 4.6 mph 4.5 mph 76% 0.00 in 158.00 W/m2
12:29 49.5 °F 41.9 °F 30.11 in South 3.5 mph 1.7 mph 75% 0.00 in 158.00 W/m2
12:34 49.5 °F 40.8 °F 30.11 in South 5.0 mph 2.5 mph 72% 0.00 in 162.00 W/m2
12:39 49.6 °F 39.8 °F 30.11 in South 6.9 mph 4.0 mph 69% 0.00 in 171.00 W/m2
12:44 49.8 °F 40.0 °F 30.11 in South 4.6 mph 3.0 mph 69% 0.00 in 229.00 W/m2
12:49 50.1 °F 39.9 °F 30.10 in SSW 6.9 mph 2.7 mph 68% 0.00 in 241.00 W/m2
12:54 50.4 °F 40.2 °F 30.10 in South 9.2 mph 3.3 mph 68% 0.00 in 306.00 W/m2
12:59 50.6 °F 40.4 °F 30.10 in SW 4.6 mph 1.9 mph 68% 0.00 in 316.00 W/m2
13:04 50.9 °F 41.8 °F 30.10 in SSE 6.0 mph 4.2 mph 71% 0.00 in 316.00 W/m2
13:09 50.8 °F 41.7 °F 30.09 in South 9.2 mph 3.1 mph 71% 0.00 in 267.00 W/m2
13:14 50.7 °F 42.0 °F 30.09 in SSW 3.5 mph 3.3 mph 72% 0.00 in 265.00 W/m2
13:19 50.6 °F 41.2 °F 30.09 in SSW 5.8 mph 4.5 mph 70% 0.00 in 290.00 W/m2
13:24 50.8 °F 41.4 °F 30.09 in SW 4.0 mph 2.9 mph 70% 0.00 in 267.00 W/m2
13:29 50.7 °F 41.6 °F 30.09 in South 3.5 mph 1.2 mph 71% 0.00 in 225.00 W/m2
13:34 50.5 °F 41.8 °F 30.09 in SSE 3.5 mph 2.1 mph 72% 0.00 in 172.00 W/m2
13:39 50.2 °F 41.5 °F 30.09 in SSW 6.0 mph 1.2 mph 72% 0.00 in 171.00 W/m2
13:44 50.0 °F 41.7 °F 30.08 in South 2.3 mph 2.0 mph 73% 0.00 in 181.00 W/m2
13:49 49.7 °F 42.1 °F 30.08 in SSW 2.3 mph   75% 0.00 in 127.00 W/m2
13:54 49.6 °F 42.7 °F 30.08 in Calm     77% 0.00 in 116.00 W/m2
13:59 49.3 °F 42.7 °F 30.08 in SW 1.2 mph 0.2 mph 78% 0.00 in 127.00 W/m2
14:04 49.0 °F 42.8 °F 30.08 in Calm     79% 0.00 in 120.00 W/m2
14:09 48.8 °F 42.9 °F 30.08 in Calm     80% 0.00 in 105.00 W/m2
14:14 48.7 °F 43.1 °F 30.07 in Calm     81% 0.00 in 100.00 W/m2
14:19 48.6 °F 43.4 °F 30.07 in Calm     82% 0.01 in 84.00 W/m2
14:24 48.3 °F 43.1 °F 30.07 in Calm     82% 0.01 in 74.00 W/m2
14:29 48.2 °F 43.3 °F 30.07 in Calm     83% 0.01 in 70.00 W/m2
14:34 48.1 °F 43.5 °F 30.06 in Calm     84% 0.01 in 63.00 W/m2
14:39 47.9 °F 43.6 °F 30.06 in Calm     85% 0.02 in 54.00 W/m2
14:44 47.7 °F 43.4 °F 30.06 in Calm     85% 0.02 in 51.00 W/m2
14:49 47.5 °F 43.5 °F 30.06 in Calm     86% 0.02 in 49.00 W/m2
14:54 47.4 °F 43.7 °F 30.06 in Calm     87% 0.03 in 46.00 W/m2
14:59 47.2 °F 43.5 °F 30.06 in Calm     87% 0.03 in 40.00 W/m2
15:04 47.2 °F 43.8 °F 30.06 in Calm     88% 0.04 in 46.00 W/m2
15:09 47.1 °F 43.7 °F 30.06 in Calm     88% 0.05 in 49.00 W/m2
15:14 47.1 °F 43.7 °F 30.06 in Calm     88% 0.05 in 49.00 W/m2
15:19 47.0 °F 43.9 °F 30.06 in Calm     89% 0.07 in 40.00 W/m2
15:24 47.0 °F 43.9 °F 30.05 in Calm     89% 0.08 in 65.00 W/m2
15:29 47.0 °F 44.2 °F 30.05 in Calm     90% 0.09 in 98.00 W/m2
15:34 47.1 °F 44.6 °F 30.05 in Calm     91% 0.09 in 86.00 W/m2
15:39 47.0 °F 44.2 °F 30.05 in Calm     90% 0.08 in 95.00 W/m2
15:44 46.9 °F 44.4 °F 30.05 in Calm     91% 0.08 in 84.00 W/m2
15:49 46.9 °F 44.4 °F 30.05 in Calm     91% 0.08 in 90.00 W/m2
15:54 47.0 °F 44.8 °F 30.05 in Calm     92% 0.07 in 84.00 W/m2
15:59 46.9 °F 44.4 °F 30.05 in Calm     91% 0.08 in 60.00 W/m2
16:04 47.0 °F 44.8 °F 30.05 in Calm     92% 0.07 in 60.00 W/m2
16:09 47.0 °F 44.8 °F 30.05 in ENE 4.0 mph 3.6 mph 92% 0.06 in 88.00 W/m2
16:14 47.1 °F 44.9 °F 30.05 in ENE 3.5 mph 3.3 mph 92% 0.06 in 98.00 W/m2
16:19 47.1 °F 44.9 °F 30.05 in Calm     92% 0.03 in 70.00 W/m2
16:24 47.1 °F 44.9 °F 30.05 in Calm     92% 0.02 in 53.00 W/m2
16:29 47.0 °F 44.8 °F 30.04 in NE 3.5 mph 0.6 mph 92% 0.01 in 40.00 W/m2
16:34 47.0 °F 44.8 °F 30.05 in ENE 3.5 mph 2.6 mph 92% 0.01 in 30.00 W/m2
16:39 46.9 °F 44.7 °F 30.05 in Calm     92% 0.01 in 21.00 W/m2
16:44 46.9 °F 44.7 °F 30.05 in ENE 3.5 mph 2.3 mph 92% 0.01 in 28.00 W/m2
16:49 46.9 °F 44.7 °F 30.04 in ENE 3.5 mph 2.0 mph 92% 0.01 in 54.00 W/m2
16:54 47.0 °F 44.8 °F 30.04 in Calm     92% 0.01 in 62.00 W/m2
16:59 47.1 °F 45.2 °F 30.04 in ENE 3.0 mph 0.3 mph 93% 0.00 in 35.00 W/m2
17:04 47.0 °F 44.8 °F 30.05 in ENE 3.5 mph 2.1 mph 92% 0.00 in 30.00 W/m2
17:09 47.0 °F 44.8 °F 30.04 in ENE 3.5 mph 2.9 mph 92% 0.00 in 26.00 W/m2
17:14 47.0 °F 44.8 °F 30.04 in ENE 2.3 mph   92% 0.00 in 26.00 W/m2
17:19 46.9 °F 44.7 °F 30.04 in ENE 6.9 mph 2.6 mph 92% 0.00 in 25.00 W/m2
17:24 46.9 °F 45.0 °F 30.04 in NE 4.0 mph 1.7 mph 93% 0.00 in 16.00 W/m2
17:29 46.8 °F 44.9 °F 30.04 in NE 4.0 mph 3.6 mph 93% 0.00 in 19.00 W/m2
17:34 46.8 °F 44.9 °F 30.05 in NE 4.6 mph 2.2 mph 93% 0.00 in 23.00 W/m2
17:39 46.8 °F 44.9 °F 30.05 in NE 3.5 mph 1.4 mph 93% 0.00 in 16.00 W/m2
17:44 46.7 °F 44.8 °F 30.05 in NE 4.6 mph 2.1 mph 93% 0.00 in 11.00 W/m2
17:49 46.6 °F 44.7 °F 30.05 in NE 4.0 mph 3.8 mph 93% 0.00 in 11.00 W/m2
17:54 46.5 °F 44.6 °F 30.05 in NE 5.8 mph 4.2 mph 93% 0.00 in 11.00 W/m2
17:59 46.4 °F 44.5 °F 30.05 in NE 4.6 mph 2.8 mph 93% 0.00 in 9.00 W/m2
18:04 46.3 °F 44.4 °F 30.05 in NE 5.0 mph 3.7 mph 93% 0.00 in 5.00 W/m2
18:09 46.1 °F 44.2 °F 30.05 in NE 4.6 mph 2.4 mph 93% 0.00 in 7.00 W/m2
18:14 46.0 °F 44.1 °F 30.05 in NE 5.8 mph 3.0 mph 93% 0.00 in 5.00 W/m2
18:19 45.8 °F 43.6 °F 30.05 in NE 6.9 mph 4.0 mph 92% 0.00 in 9.00 W/m2
18:24 45.7 °F 43.5 °F 30.05 in NE 6.9 mph 3.7 mph 92% 0.00 in 11.00 W/m2
18:29 45.6 °F 43.7 °F 30.05 in NE 5.0 mph 3.2 mph 93% 0.00 in 11.00 W/m2
18:34 45.6 °F 43.7 °F 30.05 in NE 4.6 mph 3.5 mph 93% 0.00 in 9.00 W/m2
18:39 45.5 °F 43.6 °F 30.05 in NE 6.9 mph 5.0 mph 93% 0.00 in 5.00 W/m2
18:44 45.5 °F 43.6 °F 30.06 in NE 5.0 mph 3.1 mph 93% 0.00 in 0.00 W/m2
18:49 45.4 °F 43.5 °F 30.06 in NE 4.0 mph 3.3 mph 93% 0.00 in 0.00 W/m2
18:54 45.4 °F 43.5 °F 30.07 in NE 5.8 mph 4.2 mph 93% 0.00 in 0.00 W/m2
18:59 45.3 °F 43.4 °F 30.07 in NE 4.6 mph 2.9 mph 93% 0.00 in 0.00 W/m2
19:04 45.2 °F 43.3 °F 30.07 in NE 3.5 mph 1.3 mph 93% 0.00 in 0.00 W/m2
19:09 45.2 °F 43.3 °F 30.07 in NE 4.6 mph 2.7 mph 93% 0.00 in 0.00 W/m2
19:14 45.1 °F 43.2 °F 30.07 in NE 3.5 mph 1.6 mph 93% 0.00 in 0.00 W/m2
19:19 45.0 °F 43.1 °F 30.07 in NE 3.5 mph 1.7 mph 93% 0.00 in 0.00 W/m2
19:24 45.0 °F 43.1 °F 30.07 in NE 3.5 mph 2.6 mph 93% 0.00 in 0.00 W/m2
19:29 45.0 °F 43.1 °F 30.07 in NE 3.5 mph 2.1 mph 93% 0.00 in 0.00 W/m2
19:34 45.0 °F 43.4 °F 30.08 in Calm     94% 0.01 in 0.00 W/m2
19:39 45.0 °F 43.4 °F 30.07 in NE 3.5 mph 2.4 mph 94% 0.01 in 0.00 W/m2
19:44 44.9 °F 43.3 °F 30.08 in Calm     94% 0.01 in 0.00 W/m2
19:49 44.9 °F 43.3 °F 30.08 in NE 2.3 mph   94% 0.01 in 0.00 W/m2
19:54 44.8 °F 43.2 °F 30.08 in NE 5.8 mph 3.1 mph 94% 0.01 in 0.00 W/m2
19:59 44.6 °F 43.0 °F 30.08 in NE 8.1 mph 5.2 mph 94% 0.01 in 0.00 W/m2
20:04 44.2 °F 42.6 °F 30.08 in NE 13.8 mph 5.1 mph 94% 0.01 in 0.00 W/m2
20:09 44.0 °F 42.4 °F 30.09 in NE 9.2 mph 7.8 mph 94% 0.01 in 0.00 W/m2
20:14 44.0 °F 42.4 °F 30.09 in NE 9.2 mph 7.0 mph 94% 0.01 in 0.00 W/m2
20:19 43.8 °F 42.2 °F 30.09 in NNE 11.5 mph 9.4 mph 94% 0.01 in 0.00 W/m2
20:24 43.8 °F 42.2 °F 30.09 in NE 11.5 mph 7.9 mph 94% 0.01 in 0.00 W/m2
20:29 43.6 °F 42.0 °F 30.08 in NE 13.0 mph 10.2 mph 94% 0.01 in 0.00 W/m2
20:34 43.3 °F 41.7 °F 30.09 in NE 13.8 mph 9.6 mph 94% 0.00 in 0.00 W/m2
20:39 43.1 °F 41.5 °F 30.10 in NE 11.5 mph 9.2 mph 94% 0.01 in 0.00 W/m2
20:44 43.0 °F 41.4 °F 30.10 in NE 11.5 mph 7.6 mph 94% 0.01 in 0.00 W/m2
20:49 43.0 °F 41.4 °F 30.10 in NE 11.5 mph 7.1 mph 94% 0.01 in 0.00 W/m2
20:54 42.9 °F 41.3 °F 30.10 in NE 9.0 mph 7.8 mph 94% 0.01 in 0.00 W/m2
20:59 42.8 °F 41.2 °F 30.10 in NNE 12.7 mph 12.1 mph 94% 0.01 in 0.00 W/m2
21:04 42.4 °F 40.8 °F 30.11 in NNE 11.5 mph 8.4 mph 94% 0.01 in 0.00 W/m2
21:09 42.0 °F 40.4 °F 30.11 in NE 15.0 mph 9.9 mph 94% 0.01 in 0.00 W/m2
21:14 41.1 °F 39.5 °F 30.11 in NNE 13.8 mph 10.5 mph 94% 0.01 in 0.00 W/m2
21:19 40.4 °F 38.8 °F 30.10 in NNE 15.0 mph 9.3 mph 94% 0.01 in 0.00 W/m2
21:24 40.2 °F 38.6 °F 30.11 in NE 12.7 mph 9.8 mph 94% 0.01 in 0.00 W/m2
21:29 40.1 °F 38.5 °F 30.10 in NNE 12.7 mph 9.7 mph 94% 0.01 in 0.00 W/m2
21:34 40.1 °F 38.5 °F 30.11 in NE 13.8 mph 10.9 mph 94% 0.01 in 0.00 W/m2
21:39 40.0 °F 38.4 °F 30.11 in NNE 14.0 mph 12.2 mph 94% 0.00 in 0.00 W/m2
21:44 39.9 °F 38.3 °F 30.11 in NNE 12.0 mph 10.0 mph 94% 0.00 in 0.00 W/m2
21:49 39.7 °F 38.1 °F 30.11 in NE 12.7 mph 8.8 mph 94% 0.00 in 0.00 W/m2
21:54 39.7 °F 38.1 °F 30.11 in NNE 11.5 mph 7.7 mph 94% 0.00 in 0.00 W/m2
21:59 39.6 °F 37.7 °F 30.11 in NNE 13.8 mph 10.1 mph 93% 0.00 in 0.00 W/m2
22:04 39.4 °F 37.5 °F 30.11 in NE 13.8 mph 11.1 mph 93% 0.00 in 0.00 W/m2
22:09 39.2 °F 37.3 °F 30.11 in NNE 15.0 mph 11.9 mph 93% 0.00 in 0.00 W/m2
22:14 38.8 °F 36.9 °F 30.11 in NE 12.7 mph 11.7 mph 93% 0.00 in 0.00 W/m2
22:19 38.5 °F 36.7 °F 30.11 in NNE 17.3 mph 12.3 mph 93% 0.00 in 0.00 W/m2
22:24 38.3 °F 36.5 °F 30.10 in NE 19.6 mph 13.4 mph 93% 0.00 in 0.00 W/m2
22:29 38.2 °F 36.4 °F 30.11 in NE 16.1 mph 12.8 mph 93% 0.00 in 0.00 W/m2
22:34 38.1 °F 36.3 °F 30.11 in NNE 15.0 mph 11.3 mph 93% 0.00 in 0.00 W/m2
22:39 38.0 °F 36.2 °F 30.11 in NNE 18.4 mph 12.6 mph 93% 0.00 in 0.00 W/m2
22:45 37.8 °F 36.0 °F 30.11 in NNE 19.6 mph 14.6 mph 93% 0.00 in 0.00 W/m2
22:49 37.6 °F 35.8 °F 30.11 in NNE 17.3 mph 12.1 mph 93% 0.00 in 0.00 W/m2
22:54 37.5 °F 35.7 °F 30.11 in NNE 18.4 mph 14.1 mph 93% 0.00 in 0.00 W/m2
22:59 37.4 °F 35.6 °F 30.11 in NE 20.7 mph 12.5 mph 93% 0.00 in 0.00 W/m2
23:04 37.3 °F 35.5 °F 30.11 in NE 21.9 mph 15.3 mph 93% 0.00 in 0.00 W/m2
23:09 37.2 °F 35.4 °F 30.11 in NNE 21.9 mph 15.4 mph 93% 0.00 in 0.00 W/m2
23:14 37.1 °F 35.3 °F 30.11 in NE 19.6 mph 13.1 mph 93% 0.00 in 0.00 W/m2
23:19 37.0 °F 35.2 °F 30.11 in NNE 19.6 mph 14.6 mph 93% 0.00 in 0.00 W/m2
23:24 37.0 °F 35.2 °F 30.12 in NE 19.6 mph 13.0 mph 93% 0.00 in 0.00 W/m2
23:29 36.9 °F 34.8 °F 30.12 in NNE 19.6 mph 14.6 mph 92% 0.00 in 0.00 W/m2
23:34 36.9 °F 34.8 °F 30.12 in NNE 13.8 mph 9.7 mph 92% 0.00 in 0.00 W/m2
23:39 36.9 °F 34.8 °F 30.11 in North 19.6 mph 11.9 mph 92% 0.00 in 0.00 W/m2
23:44 36.9 °F 34.8 °F 30.12 in North 13.8 mph 11.2 mph 92% 0.00 in 0.00 W/m2
23:49 36.8 °F 35.0 °F 30.12 in NE 18.4 mph 13.1 mph 93% 0.00 in 0.00 W/m2
23:54 36.8 °F 35.0 °F 30.12 in NNE 15.0 mph 10.3 mph 93% 0.00 in 0.00 W/m2
23:59 36.8 °F 35.0 °F 30.11 in North 13.8 mph 12.0 mph 93% 0.00 in 0.00 W/m2
Bourbonnais, Illinois, USA
Compliments of Weather Underground - 2 mb